Ecokeeper — SVTY — position and weather

sailwx.info

Track history (hours):
 
Tides and Currents Weather Stations Pressure Air Temp Water Temp Dewpoint Dewpoint Depression Visibility Wind Speed Wind Dir Waves Ship Positions

Ecokeeper

Last reported at 2016-Jul-24 04:33 UTC. Time now 2016-Jul-25 00:20 UTC.
Position N 38°00' E 023°33'.

Length 90 m; draft 4.2 m.

Type: Tanker. MMSI: 240689000.

Date/timePositionNaut miles runAvg speedWind from/ knotsBaromVisibWave heightAir tempDewpointWater temp
2016-Jul-24 04:33N 38°00' E 023°33'1 1.5
2016-Jul-24 03:33N 38°01' E 023°31'0 0.0
2016-Jul-24 02:33N 38°01' E 023°31'0 0.0
2016-Jul-24 01:33N 38°01' E 023°31'0 0.0
2016-Jul-24 00:33N 38°01' E 023°31'0 0.0
2016-Jul-23 23:33N 38°01' E 023°31'0 0.0
2016-Jul-23 22:34N 38°01' E 023°31'0 0.0
2016-Jul-23 21:34N 38°01' E 023°31'0 0.0
2016-Jul-23 20:33N 38°01' E 023°31'0 0.0
2016-Jul-23 19:33N 38°01' E 023°31'1 1.0
2016-Jul-23 18:34N 38°02' E 023°30'0 0.4
2016-Jul-23 17:33N 38°02' E 023°30'0 0.0
2016-Jul-23 16:33N 38°02' E 023°30'0 0.0
2016-Jul-23 15:33N 38°02' E 023°30'0 0.0
2016-Jul-23 14:33N 38°02' E 023°30'0 0.0
2016-Jul-23 13:33N 38°02' E 023°30'0 0.0
2016-Jul-23 12:33N 38°02' E 023°30'0 0.0
2016-Jul-23 11:33N 38°02' E 023°30'0 0.0
2016-Jul-23 10:33N 38°02' E 023°30'0 0.0
2016-Jul-23 09:33N 38°02' E 023°30'0 0.0
2016-Jul-23 08:33N 38°02' E 023°30'0 0.0
2016-Jul-23 07:33N 38°02' E 023°30'0 0.4
2016-Jul-23 06:33N 38°02' E 023°30'3 0.1
2016-Jul-22 04:33N 37°60' E 023°33'2 2.0
2016-Jul-22 03:34N 38°01' E 023°31'0 0.0
2016-Jul-22 02:33N 38°01' E 023°31'0 0.0
2016-Jul-22 01:33N 38°01' E 023°31'0 0.0
2016-Jul-22 00:33N 38°01' E 023°31'0 0.1
2016-Jul-21 23:33N 38°01' E 023°32'0 0.0
2016-Jul-21 22:33N 38°01' E 023°32'0 0.0
2016-Jul-21 21:33N 38°01' E 023°31'0 0.0
2016-Jul-21 20:33N 38°01' E 023°32'0 0.1
2016-Jul-21 19:33N 38°01' E 023°31'0 0.2
2016-Jul-21 18:33N 38°01' E 023°31'1 1.1
2016-Jul-21 17:33N 38°02' E 023°30'0 0.0
2016-Jul-21 16:33N 38°02' E 023°30'0 0.0
2016-Jul-21 15:34N 38°02' E 023°30'0 0.0
2016-Jul-21 14:33N 38°02' E 023°30'0 0.0
2016-Jul-21 13:33N 38°02' E 023°30'0 0.0
2016-Jul-21 12:33N 38°02' E 023°30'0 0.0
2016-Jul-21 11:33N 38°02' E 023°30'0 0.0
2016-Jul-21 10:33N 38°02' E 023°30'0 0.0
2016-Jul-21 09:33N 38°02' E 023°30'0 0.0
2016-Jul-21 08:33N 38°02' E 023°30'0 0.0
2016-Jul-21 07:34N 38°02' E 023°30'1 0.7
2016-Jul-21 06:34N 38°02' E 023°31'5 5.0
2016-Jul-21 05:32N 37°57' E 023°34'2 0.1
2016-Jul-20 04:33N 37°59' E 023°33'2 2.1
2016-Jul-20 03:33N 38°01' E 023°32'0 0.0
2016-Jul-20 02:33N 38°01' E 023°32'0 0.0
2016-Jul-20 01:33N 38°01' E 023°32'0 0.0
2016-Jul-20 00:33N 38°01' E 023°32'0 0.0
2016-Jul-19 23:33N 38°01' E 023°32'0 0.0
2016-Jul-19 22:33N 38°01' E 023°32'0 0.0
2016-Jul-19 21:33N 38°01' E 023°32'0 0.0
2016-Jul-19 20:33N 38°01' E 023°32'0 0.1
2016-Jul-19 19:33N 38°01' E 023°32'2 1.6
2016-Jul-19 18:32N 38°02' E 023°30'0 0.0
2016-Jul-19 17:32N 38°02' E 023°30'0 0.0
2016-Jul-19 16:32N 38°02' E 023°30'0 0.0
2016-Jul-19 15:32N 38°02' E 023°30'0 0.0
2016-Jul-19 14:32N 38°02' E 023°30'0 0.0
2016-Jul-19 13:32N 38°02' E 023°30'0 0.0
2016-Jul-19 12:32N 38°02' E 023°30'0 0.0
2016-Jul-19 11:32N 38°02' E 023°30'0 0.0
2016-Jul-19 10:32N 38°02' E 023°30'0 0.0
2016-Jul-19 09:32N 38°02' E 023°30'0 0.0
2016-Jul-19 08:20N 38°02' E 023°30'0 0.0
2016-Jul-19 07:32N 38°02' E 023°30'6 0.3
2016-Jul-18 08:23N 37°57' E 023°34'4 4.7
2016-Jul-18 07:33N 38°01' E 023°32'1 1.3
2016-Jul-18 06:33N 38°02' E 023°31'0 0.0
2016-Jul-18 05:33N 38°02' E 023°31'0 0.0
2016-Jul-18 04:33N 38°02' E 023°31'0 0.0
2016-Jul-18 03:33N 38°02' E 023°31'0 0.0
2016-Jul-18 02:33N 38°02' E 023°31'0 0.0
2016-Jul-18 01:34N 38°02' E 023°31'0 0.0
2016-Jul-18 00:33N 38°02' E 023°31'0 0.0
2016-Jul-17 23:34N 38°02' E 023°31'0 0.0
2016-Jul-17 22:33N 38°02' E 023°31'0 0.0
2016-Jul-17 21:33N 38°02' E 023°31'0 0.1
2016-Jul-17 20:34N 38°02' E 023°31'0 0.0
2016-Jul-17 19:33N 38°02' E 023°31'1 0.8
2016-Jul-17 18:33N 38°02' E 023°30'0 0.0
2016-Jul-17 17:33N 38°02' E 023°30'0 0.0
2016-Jul-17 16:33N 38°02' E 023°30'0 0.0
2016-Jul-17 15:33N 38°02' E 023°30'0 0.0
2016-Jul-17 14:33N 38°02' E 023°30'0 0.0
2016-Jul-17 13:33N 38°02' E 023°30'0 0.0
2016-Jul-17 12:33N 38°02' E 023°30'0 0.0
2016-Jul-17 11:33N 38°02' E 023°30'0 0.0
2016-Jul-17 10:33N 38°02' E 023°30'0 0.0
2016-Jul-17 09:33N 38°02' E 023°30'0 0.0
2016-Jul-17 08:33N 38°02' E 023°30'0 0.0
2016-Jul-17 07:33N 38°02' E 023°30'0 0.2
2016-Jul-17 06:33N 38°02' E 023°30'6 0.2
2016-Jul-16 04:21N 37°57' E 023°34'4 5.3
2016-Jul-16 03:34N 38°01' E 023°32'1 1.2
2016-Jul-16 02:33N 38°02' E 023°31'0 0.0
2016-Jul-16 01:33N 38°02' E 023°31'0 0.0
2016-Jul-16 00:34N 38°02' E 023°31'0 0.0
2016-Jul-15 23:34N 38°02' E 023°31'0 0.0
2016-Jul-15 22:34N 38°02' E 023°31'1 0.8
2016-Jul-15 21:34N 38°02' E 023°30'0 0.0
2016-Jul-15 20:34N 38°02' E 023°30'0 0.0
2016-Jul-15 19:33N 38°02' E 023°30'0 0.0
2016-Jul-15 18:33N 38°02' E 023°30'0 0.0
2016-Jul-15 17:33N 38°02' E 023°30'0 0.0
2016-Jul-15 16:33N 38°02' E 023°30'0 0.0
2016-Jul-15 15:34N 38°02' E 023°30'0 0.0
2016-Jul-15 14:33N 38°02' E 023°30'0 0.0
2016-Jul-15 13:33N 38°02' E 023°30'0 0.0
2016-Jul-15 12:33N 38°02' E 023°30'0 0.0
2016-Jul-15 11:33N 38°02' E 023°30'0 0.0
2016-Jul-15 10:33N 38°02' E 023°30'0 0.0
2016-Jul-15 09:33N 38°02' E 023°30'0 0.0
2016-Jul-15 08:34N 38°02' E 023°30'0 0.0
2016-Jul-15 07:34N 38°02' E 023°30'1 1.0
2016-Jul-15 06:33N 38°01' E 023°31'5 4.9
2016-Jul-15 05:33N 37°57' E 023°34'1 0.1
2016-Jul-14 07:33N 37°58' E 023°33'5 4.7
2016-Jul-14 06:34N 38°02' E 023°30'0 0.0
2016-Jul-14 05:33N 38°02' E 023°30'0 0.0
2016-Jul-14 04:33N 38°02' E 023°30'  
Track history (hours):
 
Tides and Currents Weather Stations Pressure Air Temp Water Temp Dewpoint Dewpoint Depression Visibility Wind Speed Wind Dir Waves Ship Positions

Ecokeeper

Last reported at 2016-Jul-24 04:33 UTC. Time now 2016-Jul-25 00:20 UTC.
Position N 38°00' E 023°33'.

Length 90 m; draft 4.2 m.

Type: Tanker. MMSI: 240689000.

Date/timePositionNaut miles runAvg speedWind from/ knotsBaromVisibWave heightAir tempDewpointWater temp
2016-Jul-24 04:33N 38°00' E 023°33'1 1.5
2016-Jul-24 03:33N 38°01' E 023°31'0 0.0
2016-Jul-24 02:33N 38°01' E 023°31'0 0.0
2016-Jul-24 01:33N 38°01' E 023°31'0 0.0
2016-Jul-24 00:33N 38°01' E 023°31'0 0.0
2016-Jul-23 23:33N 38°01' E 023°31'0 0.0
2016-Jul-23 22:34N 38°01' E 023°31'0 0.0
2016-Jul-23 21:34N 38°01' E 023°31'0 0.0
2016-Jul-23 20:33N 38°01' E 023°31'0 0.0
2016-Jul-23 19:33N 38°01' E 023°31'1 1.0
2016-Jul-23 18:34N 38°02' E 023°30'0 0.4
2016-Jul-23 17:33N 38°02' E 023°30'0 0.0
2016-Jul-23 16:33N 38°02' E 023°30'0 0.0
2016-Jul-23 15:33N 38°02' E 023°30'0 0.0
2016-Jul-23 14:33N 38°02' E 023°30'0 0.0
2016-Jul-23 13:33N 38°02' E 023°30'0 0.0
2016-Jul-23 12:33N 38°02' E 023°30'0 0.0
2016-Jul-23 11:33N 38°02' E 023°30'0 0.0
2016-Jul-23 10:33N 38°02' E 023°30'0 0.0
2016-Jul-23 09:33N 38°02' E 023°30'0 0.0
2016-Jul-23 08:33N 38°02' E 023°30'0 0.0
2016-Jul-23 07:33N 38°02' E 023°30'0 0.4
2016-Jul-23 06:33N 38°02' E 023°30'3 0.1
2016-Jul-22 04:33N 37°60' E 023°33'2 2.0
2016-Jul-22 03:34N 38°01' E 023°31'0 0.0
2016-Jul-22 02:33N 38°01' E 023°31'0 0.0
2016-Jul-22 01:33N 38°01' E 023°31'0 0.0
2016-Jul-22 00:33N 38°01' E 023°31'0 0.1
2016-Jul-21 23:33N 38°01' E 023°32'0 0.0
2016-Jul-21 22:33N 38°01' E 023°32'0 0.0
2016-Jul-21 21:33N 38°01' E 023°31'0 0.0
2016-Jul-21 20:33N 38°01' E 023°32'0 0.1
2016-Jul-21 19:33N 38°01' E 023°31'0 0.2
2016-Jul-21 18:33N 38°01' E 023°31'1 1.1
2016-Jul-21 17:33N 38°02' E 023°30'0 0.0
2016-Jul-21 16:33N 38°02' E 023°30'0 0.0
2016-Jul-21 15:34N 38°02' E 023°30'0 0.0
2016-Jul-21 14:33N 38°02' E 023°30'0 0.0
2016-Jul-21 13:33N 38°02' E 023°30'0 0.0
2016-Jul-21 12:33N 38°02' E 023°30'0 0.0
2016-Jul-21 11:33N 38°02' E 023°30'0 0.0
2016-Jul-21 10:33N 38°02' E 023°30'0 0.0
2016-Jul-21 09:33N 38°02' E 023°30'0 0.0
2016-Jul-21 08:33N 38°02' E 023°30'0 0.0
2016-Jul-21 07:34N 38°02' E 023°30'1 0.7
2016-Jul-21 06:34N 38°02' E 023°31'5 5.0
2016-Jul-21 05:32N 37°57' E 023°34'2 0.1
2016-Jul-20 04:33N 37°59' E 023°33'2 2.1
2016-Jul-20 03:33N 38°01' E 023°32'0 0.0
2016-Jul-20 02:33N 38°01' E 023°32'0 0.0
2016-Jul-20 01:33N 38°01' E 023°32'0 0.0
2016-Jul-20 00:33N 38°01' E 023°32'0 0.0
2016-Jul-19 23:33N 38°01' E 023°32'0 0.0
2016-Jul-19 22:33N 38°01' E 023°32'0 0.0
2016-Jul-19 21:33N 38°01' E 023°32'0 0.0
2016-Jul-19 20:33N 38°01' E 023°32'0 0.1
2016-Jul-19 19:33N 38°01' E 023°32'2 1.6
2016-Jul-19 18:32N 38°02' E 023°30'0 0.0
2016-Jul-19 17:32N 38°02' E 023°30'0 0.0
2016-Jul-19 16:32N 38°02' E 023°30'0 0.0
2016-Jul-19 15:32N 38°02' E 023°30'0 0.0
2016-Jul-19 14:32N 38°02' E 023°30'0 0.0
2016-Jul-19 13:32N 38°02' E 023°30'0 0.0
2016-Jul-19 12:32N 38°02' E 023°30'0 0.0
2016-Jul-19 11:32N 38°02' E 023°30'0 0.0
2016-Jul-19 10:32N 38°02' E 023°30'0 0.0
2016-Jul-19 09:32N 38°02' E 023°30'0 0.0
2016-Jul-19 08:20N 38°02' E 023°30'0 0.0
2016-Jul-19 07:32N 38°02' E 023°30'6 0.3
2016-Jul-18 08:23N 37°57' E 023°34'4 4.7
2016-Jul-18 07:33N 38°01' E 023°32'1 1.3
2016-Jul-18 06:33N 38°02' E 023°31'0 0.0
2016-Jul-18 05:33N 38°02' E 023°31'0 0.0
2016-Jul-18 04:33N 38°02' E 023°31'0 0.0
2016-Jul-18 03:33N 38°02' E 023°31'0 0.0
2016-Jul-18 02:33N 38°02' E 023°31'0 0.0
2016-Jul-18 01:34N 38°02' E 023°31'0 0.0
2016-Jul-18 00:33N 38°02' E 023°31'0 0.0
2016-Jul-17 23:34N 38°02' E 023°31'0 0.0
2016-Jul-17 22:33N 38°02' E 023°31'0 0.0
2016-Jul-17 21:33N 38°02' E 023°31'0 0.1
2016-Jul-17 20:34N 38°02' E 023°31'0 0.0
2016-Jul-17 19:33N 38°02' E 023°31'1 0.8
2016-Jul-17 18:33N 38°02' E 023°30'0 0.0
2016-Jul-17 17:33N 38°02' E 023°30'0 0.0
2016-Jul-17 16:33N 38°02' E 023°30'0 0.0
2016-Jul-17 15:33N 38°02' E 023°30'0 0.0
2016-Jul-17 14:33N 38°02' E 023°30'0 0.0
2016-Jul-17 13:33N 38°02' E 023°30'0 0.0
2016-Jul-17 12:33N 38°02' E 023°30'0 0.0
2016-Jul-17 11:33N 38°02' E 023°30'0 0.0
2016-Jul-17 10:33N 38°02' E 023°30'0 0.0
2016-Jul-17 09:33N 38°02' E 023°30'0 0.0
2016-Jul-17 08:33N 38°02' E 023°30'0 0.0
2016-Jul-17 07:33N 38°02' E 023°30'0 0.2
2016-Jul-17 06:33N 38°02' E 023°30'6 0.2
2016-Jul-16 04:21N 37°57' E 023°34'4 5.3
2016-Jul-16 03:34N 38°01' E 023°32'1 1.2
2016-Jul-16 02:33N 38°02' E 023°31'0 0.0
2016-Jul-16 01:33N 38°02' E 023°31'0 0.0
2016-Jul-16 00:34N 38°02' E 023°31'0 0.0
2016-Jul-15 23:34N 38°02' E 023°31'0 0.0
2016-Jul-15 22:34N 38°02' E 023°31'1 0.8
2016-Jul-15 21:34N 38°02' E 023°30'0 0.0
2016-Jul-15 20:34N 38°02' E 023°30'0 0.0
2016-Jul-15 19:33N 38°02' E 023°30'0 0.0
2016-Jul-15 18:33N 38°02' E 023°30'0 0.0
2016-Jul-15 17:33N 38°02' E 023°30'0 0.0
2016-Jul-15 16:33N 38°02' E 023°30'0 0.0
2016-Jul-15 15:34N 38°02' E 023°30'0 0.0
2016-Jul-15 14:33N 38°02' E 023°30'0 0.0
2016-Jul-15 13:33N 38°02' E 023°30'0 0.0
2016-Jul-15 12:33N 38°02' E 023°30'0 0.0
2016-Jul-15 11:33N 38°02' E 023°30'0 0.0
2016-Jul-15 10:33N 38°02' E 023°30'0 0.0
2016-Jul-15 09:33N 38°02' E 023°30'0 0.0
2016-Jul-15 08:34N 38°02' E 023°30'0 0.0
2016-Jul-15 07:34N 38°02' E 023°30'1 1.0
2016-Jul-15 06:33N 38°01' E 023°31'5 4.9
2016-Jul-15 05:33N 37°57' E 023°34'1 0.1
2016-Jul-14 07:33N 37°58' E 023°33'5 4.7
2016-Jul-14 06:34N 38°02' E 023°30'0 0.0
2016-Jul-14 05:33N 38°02' E 023°30'0 0.0
2016-Jul-14 04:33N 38°02' E 023°30'  

Dump ship's entire track history